Time;durP1;ratioP1;P1;durP2;ratioP2;P2;SDS_P1;SDS_P2;PMS_P1;PMS_P2;Temp;Humidity;BMP_temperature;BMP_pressure;BME280_temperature;BME280_humidity;BME280_pressure;Samples;Min_cycle;Max_cycle;Signal;HPM_P1;HPM_P2
2021/10/17 00:02:15;;;;;;;26.15;15.88;;;231.20;2252.80;;;;;;4876691;29;20041;-53
2021/10/17 00:04:41;;;;;;;20.90;14.70;;;231.10;2252.80;;;;;;4876926;29;20578;-55
2021/10/17 00:07:09;;;;;;;24.25;15.60;;;231.10;2252.80;;;;;;4876619;29;20029;-52
2021/10/17 00:09:39;;;;;;;31.75;21.15;;;231.20;2252.80;;;;;;4876596;29;20033;-52
2021/10/17 00:12:07;;;;;;;33.40;20.98;;;256.10;2252.80;;;;;;4876455;29;20383;-52
2021/10/17 00:14:33;;;;;;;19.80;14.20;;;256.10;2252.80;;;;;;4876577;29;20029;-53
2021/10/17 00:16:59;;;;;;;19.35;14.60;;;256.20;2252.80;;;;;;4876546;29;20057;-55
2021/10/17 00:19:25;;;;;;;22.67;15.65;;;256.40;2252.80;;;;;;4876605;29;20061;-55
2021/10/17 00:21:50;;;;;;;22.42;15.90;;;256.20;2252.80;;;;;;4876623;29;20527;-53
2021/10/17 00:24:16;;;;;;;20.60;14.73;;;256.30;2252.80;;;;;;4876324;29;20085;-56
2021/10/17 00:26:42;;;;;;;25.98;16.70;;;256.10;2252.80;;;;;;4876476;29;20029;-54
2021/10/17 00:29:08;;;;;;;24.40;15.32;;;256.10;2252.80;;;;;;4876176;29;20025;-53
2021/10/17 00:31:34;;;;;;;22.88;15.35;;;231.30;2252.80;;;;;;4876212;29;20037;-56
2021/10/17 00:34:00;;;;;;;20.92;15.20;;;256.00;2252.80;;;;;;4876494;29;20033;-56
2021/10/17 00:36:28;;;;;;;26.20;15.82;;;231.30;2252.80;;;;;;4876159;29;20025;-55
2021/10/17 00:38:54;;;;;;;23.13;14.50;;;231.30;2252.80;;;;;;4876443;29;20033;-53
2021/10/17 00:41:20;;;;;;;20.38;14.95;;;256.50;2252.80;;;;;;4876100;29;20084;-54
2021/10/17 00:43:46;;;;;;;20.85;13.52;;;256.00;2252.80;;;;;;4876083;29;20041;-53
2021/10/17 00:46:17;;;;;;;19.65;13.48;;;256.00;2252.80;;;;;;4877022;29;20025;-56
2021/10/17 00:48:44;;;;;;;20.77;13.32;;;256.20;2252.80;;;;;;4880134;29;20357;-53
2021/10/17 00:51:10;;;;;;;21.30;15.77;;;256.10;2252.80;;;;;;4879920;29;20084;-53
2021/10/17 00:53:36;;;;;;;19.67;13.23;;;256.10;2252.80;;;;;;4879813;29;20472;-53
2021/10/17 00:56:02;;;;;;;22.50;15.63;;;256.10;2252.80;;;;;;4879814;29;20077;-53
2021/10/17 00:58:28;;;;;;;20.40;14.38;;;256.10;2252.80;;;;;;4879961;29;20029;-53
2021/10/17 01:00:54;;;;;;;19.48;13.68;;;256.10;2252.80;;;;;;4880088;29;20033;-53
2021/10/17 01:03:20;;;;;;;25.25;16.33;;;256.10;2252.80;;;;;;4879442;29;20049;-53
2021/10/17 01:05:47;;;;;;;21.90;16.02;;;256.30;2252.80;;;;;;4879691;29;20077;-54
2021/10/17 01:08:13;;;;;;;36.90;23.65;;;256.50;2252.80;;;;;;4879716;29;20044;-52
2021/10/17 01:10:39;;;;;;;26.85;19.35;;;256.50;2252.80;;;;;;4879426;29;20025;-54
2021/10/17 01:13:04;;;;;;;21.52;15.10;;;256.70;2252.80;;;;;;4879838;29;20062;-55
2021/10/17 01:15:30;;;;;;;27.30;18.05;;;256.60;2252.80;;;;;;4879776;29;20365;-52
2021/10/17 01:17:56;;;;;;;23.70;15.68;;;256.70;2252.80;;;;;;4879577;29;20039;-54
2021/10/17 01:20:22;;;;;;;24.40;17.15;;;256.70;2252.80;;;;;;4879691;29;20029;-53
2021/10/17 01:22:49;;;;;;;26.55;17.30;;;256.70;2252.80;;;;;;4879413;29;20356;-53
2021/10/17 01:25:15;;;;;;;22.27;14.35;;;256.80;2252.80;;;;;;4879294;29;20566;-53
2021/10/17 01:27:41;;;;;;;20.85;15.55;;;256.80;2252.80;;;;;;4879351;29;20112;-55
2021/10/17 01:30:09;;;;;;;21.60;14.55;;;256.80;2252.80;;;;;;4879200;29;20080;-53
2021/10/17 01:32:35;;;;;;;21.17;14.05;;;256.70;2252.80;;;;;;4878890;29;20052;-54
2021/10/17 01:35:01;;;;;;;23.83;15.43;;;256.60;2252.80;;;;;;4879410;29;20040;-53
2021/10/17 01:37:27;;;;;;;27.48;16.98;;;256.70;2252.80;;;;;;4879170;29;20025;-54
2021/10/17 01:39:52;;;;;;;22.00;16.38;;;256.60;2252.80;;;;;;4879362;29;20025;-53
2021/10/17 01:42:19;;;;;;;20.65;14.07;;;256.40;2252.80;;;;;;4878896;29;20067;-55
2021/10/17 01:44:44;;;;;;;36.92;24.40;;;256.20;2252.80;;;;;;4878913;29;20104;-53
2021/10/17 01:47:10;;;;;;;26.70;18.38;;;256.50;2252.80;;;;;;4879130;29;20116;-57
2021/10/17 01:49:37;;;;;;;27.15;20.05;;;256.50;2252.80;;;;;;4878808;29;20033;-54
2021/10/17 01:52:05;;;;;;;22.65;16.35;;;256.50;2252.80;;;;;;4878910;29;20029;-53
2021/10/17 01:54:30;;;;;;;23.52;15.85;;;256.50;2252.80;;;;;;4879077;29;20080;-53
2021/10/17 01:56:56;;;;;;;18.63;14.50;;;256.50;2252.80;;;;;;4878446;29;20441;-52
2021/10/17 01:59:22;;;;;;;21.15;14.10;;;256.50;2252.80;;;;;;4879147;29;20086;-53
2021/10/17 02:01:47;;;;;;;21.80;15.68;;;256.50;2252.80;;;;;;4872865;29;20060;-53
2021/10/17 02:04:13;;;;;;;22.70;17.08;;;256.40;2252.80;;;;;;4861356;29;20121;-53
2021/10/17 02:06:39;;;;;;;20.10;15.75;;;256.20;2252.80;;;;;;4869781;29;20051;-52
2021/10/17 02:09:05;;;;;;;24.73;16.40;;;256.20;2252.80;;;;;;4867320;29;20082;-53
2021/10/17 02:11:31;;;;;;;24.17;16.50;;;256.20;2252.80;;;;;;4876203;29;20077;-54
2021/10/17 02:13:56;;;;;;;29.98;21.40;;;256.20;2252.80;;;;;;4878646;29;20033;-54
2021/10/17 02:16:22;;;;;;;30.05;20.67;;;256.30;2252.80;;;;;;4878940;29;20033;-53
2021/10/17 02:18:48;;;;;;;21.75;15.30;;;256.50;2252.80;;;;;;4878581;29;20472;-53
2021/10/17 02:21:14;;;;;;;29.83;19.80;;;256.60;2252.80;;;;;;4878518;29;20468;-54
2021/10/17 02:23:39;;;;;;;24.23;18.90;;;256.70;2252.80;;;;;;4878507;29;20037;-52
2021/10/17 02:26:07;;;;;;;21.83;15.15;;;256.80;2252.80;;;;;;4878224;29;20029;-52
2021/10/17 02:28:33;;;;;;;23.77;16.90;;;256.80;2252.80;;;;;;4878539;29;20029;-53
2021/10/17 02:30:59;;;;;;;19.55;14.10;;;256.80;2252.80;;;;;;4878111;29;20097;-57
2021/10/17 02:33:25;;;;;;;30.48;20.75;;;256.80;2252.80;;;;;;4878445;29;20135;-53
2021/10/17 02:35:51;;;;;;;22.42;14.98;;;256.70;2252.80;;;;;;4878438;29;20056;-53
2021/10/17 02:38:16;;;;;;;24.23;15.80;;;256.80;2252.80;;;;;;4878217;29;20654;-55
2021/10/17 02:40:42;;;;;;;24.77;17.98;;;256.90;2252.80;;;;;;4878317;29;20029;-54
2021/10/17 02:43:08;;;;;;;29.17;18.33;;;256.90;2252.80;;;;;;4877721;29;20038;-57
2021/10/17 02:45:35;;;;;;;21.88;14.18;;;256.90;2252.80;;;;;;4878124;29;20515;-52
2021/10/17 02:48:01;;;;;;;25.58;15.82;;;256.90;2252.80;;;;;;4878192;29;20029;-55
2021/10/17 02:50:27;;;;;;;24.80;15.20;;;256.90;2252.80;;;;;;4878073;29;20028;-53
2021/10/17 02:52:52;;;;;;;28.60;18.38;;;256.90;2252.80;;;;;;4878201;29;20476;-54
2021/10/17 02:55:18;;;;;;;22.73;17.00;;;281.60;2278.40;;;;;;4877848;29;20028;-54
2021/10/17 02:57:44;;;;;;;32.95;21.30;;;281.70;2278.40;;;;;;4877697;29;20618;-55
2021/10/17 03:00:10;;;;;;;61.25;39.70;;;281.70;2278.40;;;;;;4878012;29;20025;-53
2021/10/17 03:02:36;;;;;;;36.42;25.38;;;281.60;2278.40;;;;;;4877648;29;20049;-53
2021/10/17 03:05:02;;;;;;;36.15;25.67;;;281.60;2278.40;;;;;;4877806;29;20080;-54
2021/10/17 03:07:28;;;;;;;36.20;26.70;;;281.70;2278.40;;;;;;4877684;29;20040;-54
2021/10/17 03:09:53;;;;;;;35.65;24.98;;;281.70;2278.40;;;;;;4877342;29;20400;-55
2021/10/17 03:12:19;;;;;;;29.65;20.58;;;281.70;2278.40;;;;;;4877293;29;20505;-53
2021/10/17 03:14:45;;;;;;;28.58;19.58;;;281.70;2278.40;;;;;;4877412;29;20036;-53
2021/10/17 03:17:10;;;;;;;28.17;18.05;;;281.70;2278.40;;;;;;4877398;29;20564;-52
2021/10/17 03:19:36;;;;;;;25.85;17.45;;;281.70;2278.40;;;;;;4877429;29;20026;-53
2021/10/17 03:22:02;;;;;;;30.17;21.45;;;281.70;2278.40;;;;;;4877457;29;20029;-52
2021/10/17 03:24:27;;;;;;;33.95;23.25;;;281.70;2278.40;;;;;;4877200;29;20487;-53
2021/10/17 03:26:53;;;;;;;33.67;20.50;;;281.80;2278.40;;;;;;4877609;29;20036;-54
2021/10/17 03:29:19;;;;;;;27.95;20.15;;;281.70;2278.40;;;;;;4876895;29;20107;-56
2021/10/17 03:31:44;;;;;;;34.08;24.23;;;281.70;2278.40;;;;;;4877049;29;20494;-53
2021/10/17 03:34:10;;;;;;;28.58;20.45;;;281.70;2278.40;;;;;;4877424;29;20033;-52
2021/10/17 03:36:36;;;;;;;26.77;18.80;;;281.70;2278.40;;;;;;4876893;29;20030;-53
2021/10/17 03:39:02;;;;;;;27.02;18.25;;;281.70;2278.40;;;;;;4877221;29;20056;-53
2021/10/17 03:41:28;;;;;;;32.53;22.52;;;281.70;2278.40;;;;;;4876974;29;20028;-52
2021/10/17 03:43:54;;;;;;;29.17;20.23;;;281.80;2278.40;;;;;;4877069;29;20037;-53
2021/10/17 03:46:20;;;;;;;37.67;24.73;;;281.70;2278.40;;;;;;4877369;29;20464;-53
2021/10/17 03:48:46;;;;;;;37.67;27.02;;;281.70;2278.40;;;;;;4876873;29;20096;-53
2021/10/17 03:51:12;;;;;;;36.65;26.05;;;281.70;2278.40;;;;;;4877117;29;20575;-53
2021/10/17 03:53:38;;;;;;;25.13;17.25;;;281.70;2278.40;;;;;;4876875;29;20112;-53
2021/10/17 03:56:04;;;;;;;23.60;19.63;;;281.70;2278.40;;;;;;4876656;29;20025;-52
2021/10/17 03:58:30;;;;;;;25.73;20.70;;;281.70;2278.40;;;;;;4876827;29;20036;-53
2021/10/17 04:00:56;;;;;;;27.88;20.58;;;281.80;2278.40;;;;;;4876516;29;20425;-53
2021/10/17 04:03:22;;;;;;;33.97;24.67;;;281.80;2278.40;;;;;;4876795;29;20080;-52
2021/10/17 04:05:47;;;;;;;46.75;30.63;;;281.70;2278.40;;;;;;4876923;29;20029;-53
2021/10/17 04:08:13;;;;;;;43.33;28.95;;;281.70;2278.40;;;;;;4876879;29;20539;-53
2021/10/17 04:10:39;;;;;;;37.85;25.98;;;281.80;2278.40;;;;;;4876576;29;20032;-52
2021/10/17 04:13:05;;;;;;;31.90;23.75;;;281.70;2278.40;;;;;;4876652;29;20112;-53
2021/10/17 04:15:40;;;;;;;25.67;21.73;;;281.70;2278.40;;;;;;4876636;29;20025;-52
2021/10/17 04:18:06;;;;;;;24.73;17.77;;;281.70;2278.40;;;;;;4876387;29;20095;-53
2021/10/17 04:20:32;;;;;;;21.58;18.73;;;281.70;2278.40;;;;;;4875983;29;20065;-53
2021/10/17 04:22:59;;;;;;;17.92;13.85;;;281.60;2278.40;;;;;;4876002;29;20075;-53
2021/10/17 04:25:26;;;;;;;18.02;15.60;;;256.90;2252.80;;;;;;4876330;29;20029;-53
2021/10/17 04:27:51;;;;;;;19.67;15.52;;;281.60;2278.40;;;;;;4876460;29;20055;-53
2021/10/17 04:30:17;;;;;;;20.88;14.82;;;281.70;2278.40;;;;;;4876232;29;20597;-52
2021/10/17 04:32:43;;;;;;;22.27;13.98;;;281.70;2278.40;;;;;;4876390;29;20064;-52
2021/10/17 04:35:09;;;;;;;20.20;14.40;;;281.70;2278.40;;;;;;4876413;29;20029;-52
2021/10/17 04:37:36;;;;;;;17.77;13.45;;;281.70;2278.40;;;;;;4876259;29;20048;-53
2021/10/17 04:40:05;;;;;;;22.67;15.00;;;281.70;2278.40;;;;;;4876319;29;20108;-53
2021/10/17 04:42:31;;;;;;;21.40;15.27;;;281.70;2278.40;;;;;;4876351;29;20035;-53
2021/10/17 04:44:58;;;;;;;19.70;14.80;;;281.70;2278.40;;;;;;4876149;29;20033;-53
2021/10/17 04:47:24;;;;;;;27.77;16.90;;;281.60;2278.40;;;;;;4876511;29;20025;-52
2021/10/17 04:49:50;;;;;;;21.70;15.10;;;256.90;2252.80;;;;;;4876398;29;20047;-53
2021/10/17 04:52:15;;;;;;;20.48;14.27;;;256.90;2252.80;;;;;;4876312;29;20040;-53
2021/10/17 04:54:41;;;;;;;19.45;14.18;;;256.90;2252.80;;;;;;4876449;29;20048;-53
2021/10/17 04:57:07;;;;;;;23.95;15.98;;;281.60;2278.40;;;;;;4876058;29;20491;-57
2021/10/17 04:59:34;;;;;;;26.83;18.08;;;281.70;2278.40;;;;;;4876058;29;20064;-54
2021/10/17 05:01:59;;;;;;;28.48;20.60;;;281.70;2278.40;;;;;;4875797;29;20033;-57
2021/10/17 05:04:25;;;;;;;30.30;20.35;;;281.70;2278.40;;;;;;4876080;29;20040;-54
2021/10/17 05:06:51;;;;;;;39.13;22.02;;;281.70;2278.40;;;;;;4876268;29;20073;-53
2021/10/17 05:09:16;;;;;;;95.97;62.83;;;281.70;2278.40;;;;;;4875873;29;20116;-53
2021/10/17 05:11:42;;;;;;;85.65;52.45;;;281.90;2278.40;;;;;;4876151;29;20502;-56
2021/10/17 05:14:08;;;;;;;70.22;47.25;;;281.90;2278.40;;;;;;4875800;29;20578;-53
2021/10/17 05:16:34;;;;;;;61.97;39.13;;;282.00;2278.40;;;;;;4876151;29;20028;-52
2021/10/17 05:19:00;;;;;;;61.72;40.08;;;282.00;2278.40;;;;;;4875790;29;20436;-55
2021/10/17 05:21:28;;;;;;;40.30;29.08;;;282.00;2278.40;;;;;;4875872;29;20085;-53
2021/10/17 05:23:55;;;;;;;40.83;28.42;;;282.00;2278.40;;;;;;4876106;29;20045;-54
2021/10/17 05:26:21;;;;;;;38.30;29.73;;;282.10;2278.40;;;;;;4876179;29;20057;-54
2021/10/17 05:28:47;;;;;;;35.78;23.83;;;282.10;2278.40;;;;;;4875683;29;20037;-53
2021/10/17 05:31:12;;;;;;;127.90;72.10;;;282.20;2278.40;;;;;;4875634;29;20047;-53
2021/10/17 05:33:39;;;;;;;86.60;50.20;;;282.20;2278.40;;;;;;4878330;29;20051;-54
2021/10/17 05:36:06;;;;;;;32.58;22.85;;;282.20;2278.40;;;;;;4879392;29;20357;-56
2021/10/17 05:38:32;;;;;;;30.73;19.17;;;282.20;2278.40;;;;;;4862381;29;20425;-54
2021/10/17 05:40:57;;;;;;;25.75;14.70;;;282.30;2278.40;;;;;;4879214;29;20054;-53
2021/10/17 05:43:24;;;;;;;20.70;13.25;;;282.40;2278.40;;;;;;4879292;29;20041;-55
2021/10/17 05:45:50;;;;;;;21.52;14.57;;;282.40;2278.40;;;;;;4878932;29;20029;-53
2021/10/17 05:48:16;;;;;;;27.52;18.90;;;282.40;2278.40;;;;;;4878972;29;20127;-53
2021/10/17 05:50:42;;;;;;;318.02;208.55;;;282.50;2278.40;;;;;;4879223;29;20475;-54
2021/10/17 05:53:08;;;;;;;122.07;80.40;;;282.40;2278.40;;;;;;4879049;29;20089;-55
2021/10/17 05:55:34;;;;;;;39.88;24.42;;;282.50;2278.40;;;;;;4879273;29;20036;-53
2021/10/17 05:57:59;;;;;;;22.65;14.98;;;282.50;2278.40;;;;;;4878777;29;20143;-54
2021/10/17 06:00:25;;;;;;;21.80;15.38;;;307.20;2304.00;;;;;;4868402;29;20033;-56
2021/10/17 06:02:51;;;;;;;22.50;17.02;;;307.20;2304.00;;;;;;4862766;29;20041;-54
2021/10/17 06:05:17;;;;;;;27.90;19.30;;;307.20;2304.00;;;;;;4859947;29;20056;-53
2021/10/17 06:07:43;;;;;;;29.65;19.85;;;307.40;2304.00;;;;;;4860350;29;20035;-54
2021/10/17 06:10:10;;;;;;;21.63;15.55;;;307.60;2304.00;;;;;;4859839;29;20052;-54
2021/10/17 06:12:38;;;;;;;24.50;15.55;;;307.70;2304.00;;;;;;4859941;29;20043;-53
2021/10/17 06:15:08;;;;;;;23.13;14.23;;;307.70;2304.00;;;;;;4859852;29;20041;-53
2021/10/17 06:17:34;;;;;;;18.38;12.52;;;307.90;2304.00;;;;;;4860056;29;20477;-54
2021/10/17 06:20:01;;;;;;;19.50;13.05;;;308.00;2304.00;;;;;;4859793;29;20078;-55
2021/10/17 06:22:27;;;;;;;19.75;12.35;;;308.10;2304.00;;;;;;4859815;29;20060;-53
2021/10/17 06:24:53;;;;;;;19.80;12.57;;;308.10;2304.00;;;;;;4860079;29;20037;-54
2021/10/17 06:27:19;;;;;;;30.60;12.55;;;332.80;2329.60;;;;;;4859739;29;20132;-53
2021/10/17 06:29:45;;;;;;;18.15;14.63;;;332.90;2329.60;;;;;;4859516;29;20034;-55
2021/10/17 06:32:11;;;;;;;24.10;15.82;;;332.90;2329.60;;;;;;4859663;29;20109;-53
2021/10/17 06:34:36;;;;;;;27.25;18.80;;;333.10;2329.60;;;;;;4869007;29;20084;-55
2021/10/17 06:37:02;;;;;;;26.45;20.95;;;333.00;2329.60;;;;;;4878471;29;20036;-53
2021/10/17 06:39:28;;;;;;;27.23;21.52;;;333.00;2329.60;;;;;;4878009;29;20029;-53
2021/10/17 06:41:54;;;;;;;34.80;24.30;;;333.00;2329.60;;;;;;4871677;29;20033;-54
2021/10/17 06:44:20;;;;;;;30.20;22.17;;;333.10;2329.60;;;;;;4865196;29;20489;-55
2021/10/17 06:46:47;;;;;;;19.60;14.15;;;333.30;2329.60;;;;;;4859202;29;20026;-55
2021/10/17 06:49:13;;;;;;;23.40;16.88;;;333.50;2329.60;;;;;;4859559;29;20109;-57
2021/10/17 06:51:39;;;;;;;29.25;26.17;;;333.70;2329.60;;;;;;4859205;29;20112;-53
2021/10/17 06:54:04;;;;;;;20.83;18.65;;;358.50;2329.60;;;;;;4859176;29;20292;-53
2021/10/17 06:56:30;;;;;;;17.98;14.18;;;358.70;2329.60;;;;;;4868494;29;20051;-53
2021/10/17 06:58:56;;;;;;;15.60;11.13;;;358.80;2329.60;;;;;;4876292;29;20029;-51
2021/10/17 07:01:22;;;;;;;17.48;11.85;;;358.90;2329.60;;;;;;4877822;29;20040;-52
2021/10/17 07:03:47;;;;;;;15.02;10.57;;;358.90;2329.60;;;;;;4877714;29;20045;-53
2021/10/17 07:06:14;;;;;;;15.75;11.85;;;358.80;2329.60;;;;;;4877708;29;20605;-54
2021/10/17 07:08:40;;;;;;;15.43;11.18;;;358.80;2329.60;;;;;;4877889;29;20480;-55
2021/10/17 07:11:05;;;;;;;15.93;10.73;;;359.00;2329.60;;;;;;4877407;29;20116;-54
2021/10/17 07:13:31;;;;;;;15.40;11.57;;;359.30;2329.60;;;;;;4877690;29;20025;-54
2021/10/17 07:15:57;;;;;;;21.35;11.80;;;384.10;2329.60;;;;;;4877200;29;20033;-55
2021/10/17 07:18:23;;;;;;;17.80;13.60;;;384.40;2329.60;;;;;;4877589;29;20128;-55
2021/10/17 07:20:51;;;;;;;18.58;14.07;;;384.60;2329.60;;;;;;4877410;29;20365;-53
2021/10/17 07:23:17;;;;;;;19.98;16.38;;;384.90;2329.60;;;;;;4876988;29;20116;-53
2021/10/17 07:25:43;;;;;;;21.23;17.33;;;409.80;2355.20;;;;;;4877281;29;20029;-54
2021/10/17 07:28:09;;;;;;;25.80;21.45;;;409.80;2355.20;;;;;;4877240;29;20499;-53
2021/10/17 07:30:34;;;;;;;31.95;24.17;;;409.90;2355.20;;;;;;4874660;29;20567;-54
2021/10/17 07:33:01;;;;;;;36.13;26.98;;;409.90;2355.20;;;;;;4875630;29;20072;-53
2021/10/17 07:35:27;;;;;;;40.42;35.25;;;410.20;2355.20;;;;;;4875888;29;20025;-54
2021/10/17 07:37:52;;;;;;;38.80;29.50;;;410.30;2355.20;;;;;;4877971;29;20415;-54
2021/10/17 07:40:18;;;;;;;31.77;24.27;;;410.30;2355.20;;;;;;4876786;29;20048;-54
2021/10/17 07:42:44;;;;;;;30.80;22.60;;;435.30;2355.20;;;;;;4877106;29;20530;-53
2021/10/17 07:45:10;;;;;;;23.73;18.58;;;435.20;2355.20;;;;;;4876883;29;20025;-54
2021/10/17 07:47:36;;;;;;;23.65;19.67;;;410.50;2355.20;;;;;;4876728;29;20067;-54
2021/10/17 07:50:03;;;;;;;28.98;22.17;;;410.50;2355.20;;;;;;4876895;29;20060;-53
2021/10/17 07:52:29;;;;;;;27.40;22.25;;;410.30;2355.20;;;;;;4874491;29;20029;-53
2021/10/17 07:54:55;;;;;;;33.10;26.60;;;410.50;2355.20;;;;;;4875006;29;20036;-55
2021/10/17 07:57:20;;;;;;;35.60;28.45;;;410.30;2355.20;;;;;;4875582;29;20033;-52
2021/10/17 07:59:46;;;;;;;37.42;28.67;;;410.40;2355.20;;;;;;4874842;29;20451;-52
2021/10/17 08:02:12;;;;;;;39.30;29.45;;;435.30;2355.20;;;;;;4875061;29;20108;-51
2021/10/17 08:04:40;;;;;;;37.28;30.92;;;435.40;2355.20;;;;;;4874829;29;20468;-52
2021/10/17 08:07:06;;;;;;;41.15;29.88;;;435.50;2355.20;;;;;;4875238;29;20563;-52
2021/10/17 08:09:32;;;;;;;36.00;28.48;;;435.60;2355.20;;;;;;4875252;29;20157;-52
2021/10/17 08:11:58;;;;;;;28.63;25.50;;;435.60;2355.20;;;;;;4874930;29;20096;-52
2021/10/17 08:14:25;;;;;;;35.53;28.75;;;435.80;2355.20;;;;;;4858447;29;20022;-52
2021/10/17 08:16:51;;;;;;;31.95;21.65;;;435.80;2355.20;;;;;;4874613;29;20047;-52
2021/10/17 08:19:17;;;;;;;34.70;23.25;;;436.00;2355.20;;;;;;4874815;29;20027;-52
2021/10/17 08:21:43;;;;;;;120.93;96.22;;;435.90;2355.20;;;;;;4875008;29;20055;-52
2021/10/17 08:24:09;;;;;;;119.90;91.93;;;435.60;2355.20;;;;;;4874756;29;20037;-53
2021/10/17 08:26:34;;;;;;;116.30;89.55;;;410.50;2355.20;;;;;;4875028;29;21027;-53
2021/10/17 08:29:01;;;;;;;116.82;94.55;;;410.10;2355.20;;;;;;4874891;29;20037;-52
2021/10/17 08:31:27;;;;;;;97.93;77.03;;;410.00;2355.20;;;;;;4874076;29;20049;-52
2021/10/17 08:33:53;;;;;;;98.43;75.43;;;410.00;2355.20;;;;;;4874786;29;20029;-53
2021/10/17 08:36:18;;;;;;;124.07;98.80;;;410.20;2355.20;;;;;;4874648;29;20033;-53
2021/10/17 08:38:44;;;;;;;75.43;56.78;;;410.40;2355.20;;;;;;4856376;29;20038;-53
2021/10/17 08:41:12;;;;;;;73.78;55.90;;;435.40;2355.20;;;;;;4856300;29;20068;-52
2021/10/17 08:43:38;;;;;;;111.85;83.20;;;435.40;2355.20;;;;;;4855442;29;20069;-52
2021/10/17 08:46:05;;;;;;;110.40;86.07;;;435.20;2355.20;;;;;;4856219;29;20033;-51
2021/10/17 08:48:32;;;;;;;102.50;79.32;;;410.40;2355.20;;;;;;4856208;29;20033;-53
2021/10/17 08:50:58;;;;;;;105.22;79.70;;;410.30;2355.20;;;;;;4855994;29;20033;-51
2021/10/17 08:53:26;;;;;;;80.90;64.65;;;410.20;2355.20;;;;;;4856115;29;20033;-52
2021/10/17 08:55:52;;;;;;;69.30;55.70;;;410.20;2355.20;;;;;;4862558;29;20180;-53
2021/10/17 08:58:18;;;;;;;70.43;54.70;;;410.20;2355.20;;;;;;4870858;29;20146;-52
2021/10/17 09:00:43;;;;;;;65.22;48.90;;;410.40;2355.20;;;;;;4874458;29;20045;-53
2021/10/17 09:03:09;;;;;;;85.22;69.10;;;410.50;2355.20;;;;;;4874131;29;20048;-54
2021/10/17 09:05:40;;;;;;;75.35;57.97;;;435.50;2355.20;;;;;;4874556;29;20100;-51
2021/10/17 09:08:09;;;;;;;60.95;46.65;;;435.70;2355.20;;;;;;4876428;29;20117;-51
2021/10/17 09:10:36;;;;;;;47.33;34.25;;;435.80;2355.20;;;;;;4877921;29;20036;-57
2021/10/17 09:13:13;;;;;;;27.48;21.58;;;436.00;2355.20;;;;;;4878330;29;20037;-54
2021/10/17 09:15:41;;;;;;;23.70;17.17;;;436.00;2355.20;;;;;;4877971;29;20064;-55
2021/10/17 09:18:22;;;;;;;21.33;16.42;;;436.00;2355.20;;;;;;4877918;29;20032;-54
2021/10/17 09:20:47;;;;;;;21.27;16.00;;;460.80;2380.80;;;;;;4878181;29;20033;-54
2021/10/17 09:23:37;;;;;;;21.55;15.40;;;436.10;2355.20;;;;;;4877605;29;20380;-55
2021/10/17 09:26:15;;;;;;;21.75;15.25;;;460.90;2380.80;;;;;;4878064;29;20037;-56
2021/10/17 09:28:41;;;;;;;16.80;15.00;;;461.10;2380.80;;;;;;4878317;29;20053;-55
2021/10/17 09:31:15;;;;;;;24.05;19.67;;;461.10;2380.80;;;;;;4877442;29;21167;-57
2021/10/17 09:33:46;;;;;;;50.50;40.15;;;461.20;2380.80;;;;;;4877893;29;20452;-57
2021/10/17 09:36:22;;;;;;;33.85;29.00;;;461.30;2380.80;;;;;;4877430;29;20044;-57
2021/10/17 09:38:53;;;;;;;34.13;27.00;;;461.40;2380.80;;;;;;4877702;29;20132;-56
2021/10/17 09:41:22;;;;;;;25.55;19.00;;;461.50;2380.80;;;;;;4877778;29;20029;-57
2021/10/17 09:43:56;;;;;;;20.67;14.75;;;461.70;2380.80;;;;;;4877547;29;20432;-57
2021/10/17 09:46:23;;;;;;;15.38;12.82;;;486.40;2380.80;;;;;;4877697;29;20099;-56
2021/10/17 09:48:50;;;;;;;16.05;13.43;;;486.40;2380.80;;;;;;4876879;29;20124;-57
2021/10/17 09:51:26;;;;;;;20.75;16.60;;;486.40;2380.80;;;;;;4877339;29;20080;-59
2021/10/17 09:54:01;;;;;;;17.23;13.32;;;486.40;2380.80;;;;;;4877601;29;20160;-57
2021/10/17 09:56:40;;;;;;;19.25;13.63;;;461.60;2380.80;;;;;;4877586;29;20033;-56
2021/10/17 09:59:08;;;;;;;17.75;13.80;;;461.40;2380.80;;;;;;4877319;29;20037;-56
2021/10/17 10:01:36;;;;;;;16.73;14.25;;;461.60;2380.80;;;;;;4876994;29;20040;-57
2021/10/17 10:04:03;;;;;;;18.15;13.98;;;461.40;2380.80;;;;;;4877071;29;20078;-57
2021/10/17 10:06:30;;;;;;;16.65;12.40;;;461.40;2380.80;;;;;;4879197;29;20029;-57
2021/10/17 10:09:05;;;;;;;16.38;11.80;;;461.30;2380.80;;;;;;4862216;29;20115;-57
2021/10/17 10:11:31;;;;;;;21.27;15.50;;;461.40;2380.80;;;;;;4878859;29;20021;-56
2021/10/17 10:14:00;;;;;;;22.45;18.23;;;461.40;2380.80;;;;;;4878712;29;20112;-57
2021/10/17 10:16:28;;;;;;;20.38;17.25;;;461.10;2380.80;;;;;;4878449;29;20496;-56
2021/10/17 10:19:05;;;;;;;169.27;127.32;;;461.00;2380.80;;;;;;4876675;29;20036;-56
2021/10/17 10:21:31;;;;;;;339.52;244.77;;;460.90;2380.80;;;;;;4878727;29;20064;-59
2021/10/17 10:24:09;;;;;;;348.50;256.35;;;461.00;2380.80;;;;;;4878382;29;20044;-56
2021/10/17 10:26:36;;;;;;;38.58;29.35;;;461.10;2380.80;;;;;;4861939;29;20041;-59
2021/10/17 10:29:02;;;;;;;33.60;22.55;;;461.10;2380.80;;;;;;4877980;29;20033;-56
2021/10/17 10:31:40;;;;;;;25.38;19.63;;;460.80;2380.80;;;;;;4877842;29;20097;-56
2021/10/17 10:34:38;;;;;;;27.58;22.85;;;461.10;2380.80;;;;;;4878115;29;20025;-57
2021/10/17 10:37:14;;;;;;;21.75;15.25;;;461.10;2380.80;;;;;;4852253;29;20093;-56
2021/10/17 10:40:04;;;;;;;20.85;14.75;;;461.10;2380.80;;;;;;4877279;29;20033;-55
2021/10/17 10:42:47;;;;;;;52.75;45.90;;;461.00;2380.80;;;;;;4871070;29;20407;-55
2021/10/17 10:45:35;;;;;;;46.72;41.60;;;461.00;2380.80;;;;;;4876553;29;20037;-57
2021/10/17 10:48:14;;;;;;;41.28;33.75;;;461.00;2380.80;;;;;;4859522;29;20116;-56
2021/10/17 10:51:00;;;;;;;38.50;32.20;;;461.10;2380.80;;;;;;4859079;29;20038;-54
2021/10/17 10:53:48;;;;;;;39.13;28.98;;;461.00;2380.80;;;;;;4864471;29;20040;-56
2021/10/17 10:56:40;;;;;;;45.83;36.22;;;460.90;2380.80;;;;;;4869388;29;20025;-55
2021/10/17 10:59:06;;;;;;;27.35;22.55;;;461.20;2380.80;;;;;;4869127;29;20040;-57
2021/10/17 11:01:50;;;;;;;23.88;19.65;;;460.80;2380.80;;;;;;4868606;29;20037;-54
2021/10/17 11:04:37;;;;;;;23.50;18.55;;;435.60;2355.20;;;;;;4868665;29;20033;-56
2021/10/17 11:07:23;;;;;;;33.08;24.33;;;435.30;2355.20;;;;;;4868911;29;20034;-55
2021/10/17 11:09:51;;;;;;;29.15;21.65;;;410.50;2355.20;;;;;;4861351;29;20037;-56
2021/10/17 11:12:39;;;;;;;30.42;23.63;;;435.30;2355.20;;;;;;4858945;29;20038;-56
2021/10/17 11:15:06;;;;;;;37.65;28.02;;;435.30;2355.20;;;;;;4858843;29;20083;-56
2021/10/17 11:17:32;;;;;;;34.70;25.98;;;435.40;2355.20;;;;;;4859103;29;20067;-56
2021/10/17 11:19:58;;;;;;;37.15;25.85;;;435.70;2355.20;;;;;;4859014;29;20366;-56
2021/10/17 11:22:24;;;;;;;40.38;31.85;;;435.60;2355.20;;;;;;4859412;29;20045;-58
2021/10/17 11:24:56;;;;;;;35.78;26.20;;;435.90;2355.20;;;;;;4861510;29;20035;-56
2021/10/17 11:27:24;;;;;;;26.45;20.17;;;435.90;2355.20;;;;;;4866416;29;20444;-56
2021/10/17 11:29:49;;;;;;;31.83;23.92;;;435.70;2355.20;;;;;;4863294;29;20029;-56
2021/10/17 11:32:19;;;;;;;34.60;24.15;;;435.90;2355.20;;;;;;4875418;29;20060;-56
2021/10/17 11:35:02;;;;;;;31.13;24.30;;;435.80;2355.20;;;;;;4875536;29;20101;-56
2021/10/17 11:37:30;;;;;;;33.75;24.42;;;436.10;2355.20;;;;;;4852054;29;20033;-54
2021/10/17 11:40:22;;;;;;;44.42;31.13;;;436.10;2355.20;;;;;;4866001;29;20049;-56
2021/10/17 11:42:59;;;;;;;46.70;31.40;;;460.90;2380.80;;;;;;4863184;29;20042;-57
2021/10/17 11:45:30;;;;;;;30.92;24.70;;;460.90;2380.80;;;;;;4866011;29;20029;-55
2021/10/17 11:47:58;;;;;;;136.48;96.60;;;460.80;2380.80;;;;;;4865489;29;20033;-57
2021/10/17 11:50:30;;;;;;;29.27;22.23;;;461.00;2380.80;;;;;;4861501;29;20555;-55
2021/10/17 11:53:02;;;;;;;47.33;33.10;;;460.90;2380.80;;;;;;4869818;29;20116;-58
2021/10/17 11:55:41;;;;;;;26.93;21.07;;;461.00;2380.80;;;;;;4865081;29;20036;-56
2021/10/17 11:58:22;;;;;;;30.77;23.52;;;460.80;2380.80;;;;;;4859299;29;20352;-58
2021/10/17 12:00:52;;;;;;;40.65;29.50;;;461.10;2380.80;;;;;;4865075;29;20052;-57
2021/10/17 12:03:19;;;;;;;37.00;27.55;;;461.40;2380.80;;;;;;4873598;29;20073;-55